Aalst, Belgium
Current Conditions -  °F | °C
As of 9:50 PM on Thursday 20 Nov 2014 (Local Time) from EBBR Reporting Station
Light Fog Light Fog  
Wind Chill: 37°   Ceiling: Unl
Heat Index: 37°   Visibility: 1.3mi
Dew Point: 36°   Wind: 3mph
Humidity: 93%   Direction: 70°ENE
Pressure: 30.27"   Gusts: NA
Location:  50.94°N, 4.04°E
Report Text: EBBR 202050Z 07003KT 2100 R25L/1200VP2000D R25R/P2000N R01/0400VP2000U BCFG BR FEW006 03/02 Q1025 BECMG 1200 BR TEMPO 0800 FG
Loading
Personal Weather Stations






























Interactive Weather Map New forecast layout! Learn more

10-Day Weather Forecast

Advertisements
Track Severe Weather on mobile